createdAt,value
2022-11-29T00:01:43.885Z,52535.10
2022-11-29T00:04:13.724Z,52533.09
2022-11-29T00:06:43.443Z,52537.51
2022-11-29T00:09:14.157Z,52535.10
2022-11-29T00:12:01.625Z,52526.66
2022-11-29T00:14:31.320Z,52525.46
2022-11-29T00:17:02.816Z,52533.49
2022-11-29T00:19:32.859Z,52519.43
2022-11-29T00:22:02.705Z,52520.63
2022-11-29T00:24:33.173Z,52537.51
2022-11-29T00:27:03.130Z,52544.34
2022-11-29T00:29:33.071Z,52522.64
2022-11-29T00:32:02.826Z,52531.89
2022-11-29T00:34:32.649Z,52522.64
2022-11-29T00:37:02.277Z,52535.50
2022-11-29T00:39:31.967Z,52530.27
2022-11-29T00:42:02.007Z,52545.55
2022-11-29T00:44:31.712Z,52530.28
2022-11-29T00:47:01.597Z,52525.05
2022-11-29T00:49:31.271Z,52517.02
2022-11-29T00:52:01.036Z,52533.49
2022-11-29T00:54:30.764Z,52519.02
2022-11-29T00:57:00.404Z,52527.06
2022-11-29T00:59:31.086Z,52541.13
2022-11-29T01:02:00.866Z,52525.86
2022-11-29T01:04:30.646Z,52528.27
2022-11-29T01:07:00.439Z,52516.61
2022-11-29T01:09:30.182Z,52522.64
2022-11-29T01:11:59.884Z,52529.48
2022-11-29T01:14:29.590Z,52515.41
2022-11-29T01:16:59.439Z,52531.08
2022-11-29T01:19:29.245Z,52508.17
2022-11-29T01:21:59.014Z,52529.88
2022-11-29T01:24:30.002Z,52531.08
2022-11-29T01:26:59.751Z,52526.26
2022-11-29T01:29:29.424Z,52529.47
2022-11-29T01:31:59.363Z,52524.25
2022-11-29T01:34:29.236Z,52535.10
2022-11-29T01:36:59.111Z,52519.43
2022-11-29T01:39:28.782Z,52554.39
2022-11-29T01:41:58.486Z,52519.02
2022-11-29T01:44:46.257Z,52526.26
2022-11-29T01:47:16.268Z,52543.54
2022-11-29T01:49:46.746Z,52533.49
2022-11-29T01:52:16.732Z,52535.51
2022-11-29T01:54:47.024Z,52533.49
2022-11-29T01:57:17.343Z,52533.09
2022-11-29T01:59:47.732Z,52529.88
2022-11-29T02:02:18.001Z,52521.43
2022-11-29T02:04:48.062Z,52535.50
2022-11-29T02:07:18.031Z,52545.95
2022-11-29T02:09:47.837Z,52526.26
2022-11-29T02:12:21.155Z,52542.33
2022-11-29T02:15:02.416Z,52550.77
2022-11-29T02:17:34.547Z,52531.08
2022-11-29T02:20:24.167Z,52529.48
2022-11-29T02:22:54.792Z,52537.11
2022-11-29T02:25:31.728Z,52533.09
2022-11-29T02:28:20.879Z,52535.90
2022-11-29T02:30:59.271Z,52544.74
2022-11-29T02:33:33.766Z,52540.32
2022-11-29T02:36:12.867Z,52532.29
2022-11-29T02:38:56.060Z,52535.50
2022-11-29T02:41:31.655Z,52521.44
2022-11-29T02:44:16.052Z,52528.67
2022-11-29T02:46:48.892Z,52548.76
2022-11-29T02:49:20.966Z,52544.74
2022-11-29T02:51:52.043Z,52553.19
2022-11-29T02:54:22.828Z,52522.64
2022-11-29T02:56:54.811Z,52527.86
2022-11-29T02:59:29.187Z,52531.89
2022-11-29T03:01:59.697Z,52525.46
2022-11-29T03:04:32.802Z,52533.89
2022-11-29T03:07:05.163Z,52544.74
2022-11-29T03:09:35.776Z,52537.51
2022-11-29T03:12:08.637Z,52533.09
2022-11-29T03:14:42.762Z,52535.10
2022-11-29T03:17:14.520Z,52515.01
2022-11-29T03:19:50.282Z,52529.88
2022-11-29T03:22:22.147Z,52539.93
2022-11-29T03:24:52.737Z,52535.51
2022-11-29T03:27:24.116Z,52506.57
2022-11-29T03:29:55.073Z,52526.66
2022-11-29T03:32:27.090Z,52537.11
2022-11-29T03:34:57.942Z,52536.30
2022-11-29T03:37:29.945Z,52545.95
2022-11-29T03:40:01.388Z,52539.93
2022-11-29T03:42:31.927Z,52535.10
2022-11-29T03:45:04.045Z,52539.12
2022-11-29T03:47:35.566Z,52521.03
2022-11-29T03:50:07.233Z,52531.48
2022-11-29T03:52:37.419Z,52535.91
2022-11-29T03:55:12.125Z,52537.91
2022-11-29T03:57:43.496Z,52541.52
2022-11-29T04:00:14.161Z,52531.48
2022-11-29T04:02:56.685Z,52539.52
2022-11-29T04:05:52.254Z,52532.69
2022-11-29T04:08:39.361Z,52531.09
2022-11-29T04:11:23.001Z,52545.95
2022-11-29T04:14:00.885Z,52545.95
2022-11-29T04:16:47.129Z,52537.51
2022-11-29T04:19:22.847Z,52540.73
2022-11-29T04:22:11.995Z,52549.56
2022-11-29T04:24:58.819Z,52553.59
2022-11-29T04:27:35.273Z,52536.71
2022-11-29T04:30:09.679Z,52533.89
2022-11-29T04:32:47.955Z,52527.86
2022-11-29T04:35:38.286Z,52535.91
2022-11-29T04:38:25.375Z,52540.73
2022-11-29T04:41:02.381Z,52541.53
2022-11-29T04:43:43.685Z,52541.13
2022-11-29T04:46:42.440Z,52537.51
2022-11-29T04:49:20.959Z,52538.31
2022-11-29T04:51:56.819Z,52547.55
2022-11-29T04:54:28.270Z,52529.88
2022-11-29T04:56:58.890Z,52545.95
2022-11-29T04:59:31.202Z,52544.74
2022-11-29T05:02:03.815Z,52528.67
2022-11-29T05:04:37.518Z,52545.55
2022-11-29T05:07:07.709Z,52543.14
2022-11-29T05:09:44.526Z,52543.95
2022-11-29T05:12:16.051Z,52551.18
2022-11-29T05:14:50.804Z,52541.53
2022-11-29T05:17:34.030Z,52526.66
2022-11-29T05:20:25.737Z,52559.62
2022-11-29T05:22:59.543Z,52538.31
2022-11-29T05:25:38.801Z,52537.91
2022-11-29T05:28:10.552Z,52537.51
2022-11-29T05:30:48.167Z,52551.18
2022-11-29T05:33:22.223Z,52547.55
2022-11-29T05:35:55.556Z,52543.14
2022-11-29T05:38:45.138Z,52552.78
2022-11-29T05:41:17.741Z,52543.14
2022-11-29T05:43:52.869Z,52539.93
2022-11-29T05:46:23.570Z,52571.27
2022-11-29T05:48:56.171Z,52548.76
2022-11-29T05:51:28.943Z,52550.77
2022-11-29T05:54:00.751Z,52541.93
2022-11-29T05:56:37.883Z,52545.55
2022-11-29T05:59:09.397Z,52547.56
2022-11-29T06:01:39.504Z,52548.76
2022-11-29T06:04:14.801Z,52558.41
2022-11-29T06:06:46.296Z,52535.10
2022-11-29T06:09:17.639Z,52538.72
2022-11-29T06:11:48.424Z,52529.88
2022-11-29T06:14:23.077Z,52543.14
2022-11-29T06:17:12.618Z,52547.16
2022-11-29T06:19:55.782Z,52556.80
2022-11-29T06:22:34.871Z,52557.21
2022-11-29T06:25:08.343Z,52533.09
2022-11-29T06:27:41.444Z,52535.90
2022-11-29T06:30:12.698Z,52556.40
2022-11-29T06:32:45.612Z,52541.13
2022-11-29T06:35:18.126Z,52529.48
2022-11-29T06:37:48.857Z,52558.01
2022-11-29T06:40:18.752Z,52542.74
2022-11-29T06:42:49.242Z,52547.96
2022-11-29T06:45:19.818Z,52542.33
2022-11-29T06:47:50.826Z,52545.95
2022-11-29T06:50:24.421Z,52541.13
2022-11-29T06:52:58.583Z,52543.54
2022-11-29T06:55:29.068Z,52526.66
2022-11-29T06:58:02.449Z,52540.73
2022-11-29T07:00:34.489Z,52531.08
2022-11-29T07:03:27.117Z,52526.66
2022-11-29T07:05:57.362Z,52550.37
2022-11-29T07:08:28.070Z,52543.14
2022-11-29T07:10:59.825Z,52527.87
2022-11-29T07:13:30.271Z,52534.70
2022-11-29T07:16:02.125Z,52533.89
2022-11-29T07:18:32.900Z,52550.38
2022-11-29T07:21:05.174Z,52545.95
2022-11-29T07:23:36.567Z,52531.08
2022-11-29T07:26:10.549Z,52541.13
2022-11-29T07:28:43.438Z,52533.49
2022-11-29T07:31:14.356Z,52525.86
2022-11-29T07:33:46.126Z,52512.59
2022-11-29T07:36:18.145Z,52528.67
2022-11-29T07:38:54.960Z,52522.24
2022-11-29T07:41:25.805Z,52526.26
2022-11-29T07:43:56.439Z,52528.27
2022-11-29T07:46:28.775Z,52516.21
2022-11-29T07:48:58.842Z,52529.48
2022-11-29T07:51:28.462Z,52502.95
2022-11-29T07:53:58.404Z,52499.73
2022-11-29T07:56:28.189Z,52514.20
2022-11-29T07:58:58.223Z,52506.57
2022-11-29T08:01:28.090Z,52499.73
2022-11-29T08:03:58.097Z,52520.63
2022-11-29T08:06:28.006Z,52506.97
2022-11-29T08:08:59.772Z,52503.35
2022-11-29T08:11:31.823Z,52500.94
2022-11-29T08:14:01.829Z,52508.17
2022-11-29T08:16:32.085Z,52502.54
2022-11-29T08:19:02.070Z,52496.92
2022-11-29T08:21:32.028Z,52494.11
2022-11-29T08:24:01.972Z,52511.39
2022-11-29T08:26:32.169Z,52507.37
2022-11-29T08:29:01.973Z,52495.31
2022-11-29T08:31:32.330Z,52500.94
2022-11-29T08:34:02.088Z,52489.29
2022-11-29T08:36:33.345Z,52504.15
2022-11-29T08:39:08.919Z,52499.73
2022-11-29T08:41:39.486Z,52496.92
2022-11-29T08:44:09.241Z,52488.08
2022-11-29T08:46:56.568Z,52480.04
2022-11-29T08:49:26.242Z,52479.24
2022-11-29T08:52:16.659Z,52489.28
2022-11-29T08:54:46.590Z,52484.06
2022-11-29T08:57:39.116Z,52480.04
2022-11-29T09:00:07.731Z,52467.58
2022-11-29T09:02:37.563Z,52478.43
2022-11-29T09:05:08.004Z,52493.71
2022-11-29T09:07:38.099Z,52464.77
2022-11-29T09:10:09.585Z,52466.78
2022-11-29T09:12:39.270Z,52474.82
2022-11-29T09:15:10.518Z,52468.79
2022-11-29T09:17:40.663Z,52490.89
2022-11-29T09:20:11.688Z,52482.86
2022-11-29T09:22:41.810Z,52464.37
2022-11-29T09:25:11.897Z,52467.58
2022-11-29T09:27:42.303Z,52484.05
2022-11-29T09:30:12.995Z,52479.24
2022-11-29T09:32:42.899Z,52485.66
2022-11-29T09:35:12.950Z,52491.29
2022-11-29T09:37:44.844Z,52478.43
2022-11-29T09:40:17.659Z,52490.09
2022-11-29T09:42:49.264Z,52477.23
2022-11-29T09:45:20.035Z,52503.75
2022-11-29T09:48:03.400Z,52469.19
2022-11-29T09:50:34.984Z,52473.61
2022-11-29T09:53:11.219Z,52466.38
2022-11-29T09:55:44.377Z,52482.45
2022-11-29T09:58:15.498Z,52468.39
2022-11-29T10:00:47.473Z,52465.57
2022-11-29T10:03:18.569Z,52470.39
2022-11-29T10:05:50.404Z,52475.22
2022-11-29T10:08:22.247Z,52464.36
2022-11-29T10:10:52.738Z,52474.01
2022-11-29T10:13:23.578Z,52461.55
2022-11-29T10:15:54.494Z,52457.54
2022-11-29T10:18:25.309Z,52459.54
2022-11-29T10:20:57.761Z,52449.09
2022-11-29T10:23:28.275Z,52456.33
2022-11-29T10:25:58.516Z,52447.49
2022-11-29T10:28:30.933Z,52437.84
2022-11-29T10:31:02.001Z,52466.78
2022-11-29T10:33:32.635Z,52437.45
2022-11-29T10:36:04.029Z,52429.80
2022-11-29T10:38:33.914Z,52440.25
2022-11-29T10:41:05.878Z,52448.70
2022-11-29T10:43:37.618Z,52447.89
2022-11-29T10:46:07.696Z,52449.90
2022-11-29T10:48:37.688Z,52459.14
2022-11-29T10:51:11.373Z,52447.09
2022-11-29T10:53:41.273Z,52468.39
2022-11-29T10:56:15.728Z,52461.16
2022-11-29T10:58:54.905Z,52453.92
2022-11-29T11:01:24.986Z,52453.92
2022-11-29T11:03:55.383Z,52481.65
2022-11-29T11:06:25.722Z,52469.99
2022-11-29T11:08:55.993Z,52449.10
2022-11-29T11:11:29.992Z,52464.77
2022-11-29T11:14:04.360Z,52455.93
2022-11-29T11:16:37.560Z,52474.41
2022-11-29T11:19:21.153Z,52464.37
2022-11-29T11:21:50.868Z,52458.74
2022-11-29T11:24:22.768Z,52465.57
2022-11-29T11:26:52.652Z,52454.73
2022-11-29T11:29:22.882Z,52452.71
2022-11-29T11:31:57.119Z,52467.18
2022-11-29T11:34:27.876Z,52451.91
2022-11-29T11:37:13.014Z,52442.26
2022-11-29T11:39:42.860Z,52450.70
2022-11-29T11:42:30.455Z,52455.93
2022-11-29T11:45:00.671Z,52444.27
2022-11-29T11:47:30.943Z,52435.03
2022-11-29T11:50:08.126Z,52426.19
2022-11-29T11:52:41.267Z,52422.97
2022-11-29T11:55:26.194Z,52425.79
2022-11-29T11:58:07.664Z,52416.95
2022-11-29T12:03:41.500Z,52422.98
2022-11-29T12:06:24.169Z,52421.77
2022-11-29T12:08:53.956Z,52422.97
2022-11-29T12:11:23.670Z,52404.49
2022-11-29T12:13:55.293Z,52414.94
2022-11-29T12:16:29.410Z,52427.39
2022-11-29T12:19:00.059Z,52422.97
2022-11-29T12:21:31.691Z,52427.39
2022-11-29T12:24:01.944Z,52433.43
2022-11-29T12:26:56.415Z,52422.17
2022-11-29T12:29:22.893Z,52435.84
2022-11-29T12:31:59.138Z,52445.88
2022-11-29T12:34:33.983Z,52428.20
2022-11-29T12:37:04.965Z,52446.69
2022-11-29T12:39:38.742Z,52445.48
2022-11-29T12:42:10.986Z,52455.52
2022-11-29T12:44:43.723Z,52443.87
2022-11-29T12:50:11.947Z,52472.01
2022-11-29T12:52:43.830Z,52465.57
2022-11-29T12:55:17.890Z,52462.76
2022-11-29T12:57:49.444Z,52457.54
2022-11-29T13:00:19.229Z,52459.95
2022-11-29T13:03:05.476Z,52467.18
2022-11-29T13:05:38.763Z,52474.82
2022-11-29T13:08:12.803Z,52455.52
2022-11-29T13:10:46.605Z,52465.18
2022-11-29T13:13:19.499Z,52453.92
2022-11-29T13:15:51.525Z,52465.57
2022-11-29T13:18:22.855Z,52474.81
2022-11-29T13:20:54.068Z,52476.02
2022-11-29T13:23:39.181Z,52475.62
2022-11-29T13:26:14.865Z,52475.62
2022-11-29T13:28:45.501Z,52482.85
2022-11-29T13:31:15.637Z,52485.27
2022-11-29T13:33:48.388Z,52461.15
2022-11-29T13:36:19.618Z,52480.45
2022-11-29T13:38:51.246Z,52468.79
2022-11-29T13:41:24.459Z,52486.88
2022-11-29T13:43:55.604Z,52475.62
2022-11-29T13:46:27.505Z,52457.54
2022-11-29T13:48:57.359Z,52468.39
2022-11-29T13:51:28.914Z,52462.76
2022-11-29T13:53:58.995Z,52469.99
2022-11-29T13:56:30.021Z,52474.41
2022-11-29T13:59:01.236Z,52485.67
2022-11-29T14:01:31.216Z,52472.00
2022-11-29T14:04:05.484Z,52482.45
2022-11-29T14:06:35.511Z,52485.66
2022-11-29T14:09:20.251Z,52485.67
2022-11-29T14:11:50.434Z,52487.68
2022-11-29T14:14:22.658Z,52486.47
2022-11-29T14:16:53.657Z,52480.04
2022-11-29T14:19:26.584Z,52475.22
2022-11-29T14:22:30.639Z,52478.03
2022-11-29T14:25:21.708Z,52486.47
2022-11-29T14:27:57.528Z,52491.29
2022-11-29T14:30:47.677Z,52488.08
2022-11-29T14:33:25.479Z,52478.84
2022-11-29T14:36:02.030Z,52492.90
2022-11-29T14:38:32.351Z,52476.43
2022-11-29T14:41:02.711Z,52478.03
2022-11-29T14:43:33.617Z,52498.13
2022-11-29T14:46:09.794Z,52486.47
2022-11-29T14:48:39.804Z,52487.27
2022-11-29T14:51:10.341Z,52480.44
2022-11-29T14:53:39.974Z,52482.45
2022-11-29T14:56:32.435Z,52494.91
2022-11-29T14:59:15.496Z,52487.27
2022-11-29T15:01:45.875Z,52484.06
2022-11-29T15:04:15.730Z,52494.11
2022-11-29T15:06:51.636Z,52487.27
2022-11-29T15:09:22.790Z,52467.99
2022-11-29T15:11:53.176Z,52473.21
2022-11-29T15:14:24.639Z,52484.46
2022-11-29T15:17:08.236Z,52482.86
2022-11-29T15:19:57.303Z,52481.24
2022-11-29T15:22:27.969Z,52487.27
2022-11-29T15:24:58.522Z,52491.70
2022-11-29T15:27:28.763Z,52489.69
2022-11-29T15:30:00.030Z,52500.54
2022-11-29T15:32:31.247Z,52502.14
2022-11-29T15:35:01.091Z,52490.09
2022-11-29T15:37:42.858Z,52489.28
2022-11-29T15:40:15.360Z,52504.96
2022-11-29T15:42:45.964Z,52506.56
2022-11-29T15:45:32.664Z,52493.30
2022-11-29T15:48:17.184Z,52506.97
2022-11-29T15:50:47.953Z,52504.96
2022-11-29T15:53:18.883Z,52486.87
2022-11-29T15:55:49.758Z,52508.57
2022-11-29T15:58:19.765Z,52465.98
2022-11-29T16:00:50.828Z,52504.16
2022-11-29T16:03:22.181Z,52485.67
2022-11-29T16:05:53.173Z,52482.85
2022-11-29T16:08:23.094Z,52480.44
2022-11-29T16:10:53.566Z,52487.68
2022-11-29T16:13:31.390Z,52501.74
2022-11-29T16:16:08.310Z,52493.30
2022-11-29T16:18:38.010Z,52505.36
2022-11-29T16:21:08.213Z,52485.26
2022-11-29T16:23:38.357Z,52499.74
2022-11-29T16:26:11.471Z,52504.55
2022-11-29T16:28:44.049Z,52506.96
2022-11-29T16:31:18.076Z,52490.89
2022-11-29T16:33:49.296Z,52499.74
2022-11-29T16:36:19.483Z,52507.37
2022-11-29T16:38:49.974Z,52506.16
2022-11-29T16:41:31.116Z,52509.77
2022-11-29T16:44:03.457Z,52502.54
2022-11-29T16:46:34.024Z,52484.86
2022-11-29T16:49:04.661Z,52496.52
2022-11-29T16:51:40.202Z,52494.51
2022-11-29T16:54:23.489Z,52496.12
2022-11-29T16:56:53.394Z,52489.28
2022-11-29T16:59:27.496Z,52481.65
2022-11-29T17:01:58.006Z,52497.72
2022-11-29T17:04:27.729Z,52491.70
2022-11-29T17:06:59.974Z,52499.73
2022-11-29T17:09:30.174Z,52490.49
2022-11-29T17:12:01.123Z,52505.36
2022-11-29T17:14:31.522Z,52483.26
2022-11-29T17:17:01.503Z,52500.94
2022-11-29T17:19:31.623Z,52500.54
2022-11-29T17:22:02.052Z,52510.99
2022-11-29T17:24:31.735Z,52504.16
2022-11-29T17:27:01.626Z,52512.19
2022-11-29T17:29:31.358Z,52502.55
2022-11-29T17:32:01.138Z,52499.33
2022-11-29T17:34:31.057Z,52499.33
2022-11-29T17:37:00.969Z,52519.43
2022-11-29T17:39:30.608Z,52507.77
2022-11-29T17:42:00.510Z,52481.65
2022-11-29T17:44:30.305Z,52513.39
2022-11-29T17:47:00.198Z,52515.41
2022-11-29T17:49:30.080Z,52504.55
2022-11-29T17:51:59.921Z,52502.15
2022-11-29T17:54:33.137Z,52523.04
2022-11-29T17:57:04.004Z,52514.20
2022-11-29T17:59:33.829Z,52513.40
2022-11-29T18:02:04.443Z,52519.02
2022-11-29T18:04:34.177Z,52507.77
2022-11-29T18:07:04.002Z,52512.20
2022-11-29T18:09:33.803Z,52495.31
2022-11-29T18:12:03.599Z,52508.57
2022-11-29T18:14:33.816Z,52510.59
2022-11-29T18:17:03.968Z,52513.40
2022-11-29T18:19:34.026Z,52509.77
2022-11-29T18:22:03.734Z,52519.82
2022-11-29T18:24:33.375Z,52513.39
2022-11-29T18:27:03.105Z,52514.20
2022-11-29T18:29:38.902Z,52526.26
2022-11-29T18:32:09.214Z,52486.88
2022-11-29T18:34:39.264Z,52505.36
2022-11-29T18:37:15.304Z,52507.77
2022-11-29T18:39:48.139Z,52496.12
2022-11-29T18:42:17.958Z,52500.14
2022-11-29T18:44:47.909Z,52515.80
2022-11-29T18:47:17.778Z,52500.54
2022-11-29T18:49:47.520Z,52513.00
2022-11-29T18:52:17.554Z,52531.48
2022-11-29T18:54:47.913Z,52506.97
2022-11-29T18:57:17.775Z,52525.86
2022-11-29T18:59:47.767Z,52523.85
2022-11-29T19:02:20.215Z,52529.88
2022-11-29T19:04:50.533Z,52507.37
2022-11-29T19:07:20.420Z,52529.07
2022-11-29T19:09:50.663Z,52527.05
2022-11-29T19:12:23.083Z,52536.70
2022-11-29T19:14:53.304Z,52513.40
2022-11-29T19:17:23.496Z,52541.13
2022-11-29T19:19:53.581Z,52515.80
2022-11-29T19:22:23.625Z,52528.66
2022-11-29T19:24:55.657Z,52534.70
2022-11-29T19:27:26.325Z,52506.97
2022-11-29T19:29:56.014Z,52516.21
2022-11-29T19:32:26.348Z,52521.84
2022-11-29T19:34:57.011Z,52530.68
2022-11-29T19:37:27.119Z,52522.64
2022-11-29T19:39:56.949Z,52512.59
2022-11-29T19:42:26.921Z,52527.06
2022-11-29T19:47:46.812Z,52533.49
2022-11-29T19:50:16.809Z,52532.69
2022-11-29T19:52:46.699Z,52525.86
2022-11-29T19:55:18.749Z,52535.91
2022-11-29T19:57:48.636Z,52541.53
2022-11-29T20:00:20.069Z,52529.07
2022-11-29T20:02:50.181Z,52527.86
2022-11-29T20:05:20.099Z,52528.67
2022-11-29T20:07:49.966Z,52526.66
2022-11-29T20:10:22.051Z,52520.23
2022-11-29T20:12:52.015Z,52535.91
2022-11-29T20:15:21.716Z,52518.22
2022-11-29T20:17:53.025Z,52538.71
2022-11-29T20:20:23.359Z,52528.67
2022-11-29T20:22:54.842Z,52535.10
2022-11-29T20:25:24.836Z,52515.81
2022-11-29T20:27:54.608Z,52535.10
2022-11-29T20:30:24.550Z,52533.09
2022-11-29T20:32:54.505Z,52527.87
2022-11-29T20:35:24.736Z,52541.13
2022-11-29T20:37:57.400Z,52555.20
2022-11-29T20:40:29.331Z,52549.97
2022-11-29T20:43:02.138Z,52541.93
2022-11-29T20:45:32.401Z,52550.77
2022-11-29T20:48:04.050Z,52535.50
2022-11-29T20:50:34.162Z,52534.70
2022-11-29T20:53:11.013Z,52539.52
2022-11-29T20:55:47.482Z,52535.10
2022-11-29T20:58:18.598Z,52572.07
2022-11-29T21:00:48.528Z,52546.75
2022-11-29T21:03:18.881Z,52533.89
2022-11-29T21:05:48.695Z,52544.34
2022-11-29T21:08:18.826Z,52562.83
2022-11-29T21:10:48.506Z,52543.54
2022-11-29T21:13:19.162Z,52542.73
2022-11-29T21:15:49.469Z,52537.11
2022-11-29T21:18:22.241Z,52558.81
2022-11-29T21:20:57.925Z,52551.98
2022-11-29T21:23:29.614Z,52551.98
2022-11-29T21:26:00.890Z,52551.18
2022-11-29T21:28:31.979Z,52535.90
2022-11-29T21:31:02.827Z,52523.84
2022-11-29T21:33:33.322Z,52552.78
2022-11-29T21:36:05.393Z,52544.34
2022-11-29T21:38:35.158Z,52549.17
2022-11-29T21:41:04.958Z,52541.53
2022-11-29T21:44:04.427Z,52528.67
2022-11-29T21:46:24.473Z,52557.61
2022-11-29T21:48:55.139Z,52543.54
2022-11-29T21:51:24.864Z,52535.50
2022-11-29T21:53:54.721Z,52543.54
2022-11-29T21:56:25.233Z,52546.75
2022-11-29T21:58:54.941Z,52536.71
2022-11-29T22:01:24.654Z,52541.52
2022-11-29T22:03:54.956Z,52557.61
2022-11-29T22:06:26.618Z,52537.11
2022-11-29T22:08:56.424Z,52535.50
2022-11-29T22:11:34.399Z,52541.13
2022-11-29T22:14:17.166Z,52540.73
2022-11-29T22:16:47.361Z,52530.27
2022-11-29T22:19:17.436Z,52545.14
2022-11-29T22:21:47.445Z,52541.53
2022-11-29T22:24:17.513Z,52561.23
2022-11-29T22:26:47.311Z,52548.36
2022-11-29T22:29:17.036Z,52555.99
2022-11-29T22:31:47.356Z,52529.07
2022-11-29T22:34:17.230Z,52543.94
2022-11-29T22:36:47.070Z,52548.76
2022-11-29T22:39:16.812Z,52554.79
2022-11-29T22:41:53.701Z,52552.38
2022-11-29T22:44:24.448Z,52556.00
2022-11-29T22:46:54.339Z,52553.59
2022-11-29T22:49:24.317Z,52546.35
2022-11-29T22:51:55.188Z,52544.74
2022-11-29T22:54:24.883Z,52537.11
2022-11-29T22:56:54.957Z,52541.93
2022-11-29T22:59:24.884Z,52531.48
2022-11-29T23:01:54.997Z,52562.83
2022-11-29T23:04:25.067Z,52563.23
2022-11-29T23:06:54.975Z,52549.17
2022-11-29T23:09:24.713Z,52536.71
2022-11-29T23:11:55.994Z,52552.38
2022-11-29T23:14:25.725Z,52555.20
2022-11-29T23:16:55.667Z,52541.93
2022-11-29T23:19:25.507Z,52546.76
2022-11-29T23:21:56.702Z,52561.63
2022-11-29T23:24:26.599Z,52549.97
2022-11-29T23:26:56.208Z,52547.96
2022-11-29T23:29:26.018Z,52556.80
2022-11-29T23:31:55.683Z,52545.55
2022-11-29T23:34:25.491Z,52554.79
2022-11-29T23:36:55.208Z,52555.20
2022-11-29T23:39:25.197Z,52537.91
2022-11-29T23:41:54.937Z,52547.96
2022-11-29T23:44:24.560Z,52554.79
2022-11-29T23:46:54.241Z,52549.16
2022-11-29T23:49:24.088Z,52570.06
2022-11-29T23:51:53.869Z,52556.80
2022-11-29T23:54:23.621Z,52549.98
2022-11-29T23:56:53.326Z,52549.97
2022-11-29T23:59:23.128Z,52522.24
